Pointe A La Hache, Louisiana
Current Conditions -  °F | °C
As of 12:55 PM on Friday 24 Oct 2014 (Local Time) from KNBG Reporting Station
Few Clouds Few Clouds  
Wind Chill: 75°   Ceiling: Unl
Heat Index: 75°   Visibility: 10mi
Dew Point: 45°   Wind: 6mph
Humidity: 34%   Direction: NA
Pressure: 30.07"   Gusts: NA
Location:  29.58°N, 89.79°W
Report Text: KNBG 241755Z VRB05KT 10SM FEW150 24/07 A3007 RMK AO2 SLP182 T02390072 10239 20100 58015 $
Loading
Personal Weather Stations






























Interactive Weather Map
Tropical Storm Tracking
New forecast layout! Learn more

10-Day Weather Forecast

Advertisements
Track Severe Weather on mobile